Change Date:Time:

Metar of : 5/25/2024 1100UTC
 Station  Wind Direction  Speed  Visibility Clouds Temperature Pressure Humidity
OPAK 36002KT 5000 HZ NSC 40/17 Q999 27%
ATTOCK N 02KT 5000m Haze 40oC 999hp 27%
OPBR 00000KT 6000 NSC 42/26 40%
BAHAWALNAGAR --- 00KT 6000m Clear 42oC 40%
OPBW 2512/2612 18010KT 3000 HZ NSC TN29/2601Z TX47/2610Z FM260700 31010KT 4000 HZ FEW100 PROB30 TEMPO CT100
BAHAWALPUR A/P NW 10KT 3000m Partly Cloudy 47oC
OPBW 05008KT 3500 HZ NSC 45/20 Q1001 25%
BAHAWALPUR A/P NE 08KT Haze 45oC 1001hp 25%
OPBK 00000KT CAVOK 37/14 26%
BALAKOT --- 00KT Clear 37oC 26%
OPBN 1100Z 13002KT CAVOK 42/21 RH 31%
BANNU SE 02KT Clear 42oC 31%
OPBKR 23004KT CAVOK 45/19 23%
BHAKKAR SW 04KT Clear 45oC 23%
OPCK 13004KT CAVOK 41/12 19%
CHAKWAL SE 04KT Clear 41oC 19%
OPCH 251100Z 18010KT 9999 SCT030 33/06 Q1009 18%
CHITRAL S 10KT 9999m Partly Cloudy 33oC 1009hp 18%
OPDG 2512/2612 23010KT 4000 HZ SCT100 TN31/2601Z TX46/2610Z PROB30 TEMPO 0 NSC
D G KHAN SW 10KT 4000m Partly Cloudy 46oC
OPDG 13008KT 6000 NSC 44/15 Q0996 18%
D G KHAN SE 08KT Clear 44oC 996hp 18%
OPDI 09002KT CAVOK 43/17 Q0999 19%
DI Khan Airport E 02KT Clear 43oC 999hp 19%
OPDIR 251100Z 13002KT 9999 SCT035 33/14 32%
DIR SE 02KT 9999m Partly Cloudy 33oC 32%
OPDH 251100Z 00000KT 9999 SCT050 34/11 25%
DROSH --- 00KT 9999m Partly Cloudy 34oC 25%
OPFA 31006KT 7000 NSC 41/19 Q1001 NOSIG 28%
FAISALABAD NW 06KT 7000m Clear 41oC 1001hp 28%
OPFA 25,1100Z 2512/2618 23004KT 5000 HZ NSC TX43/2610Z TN28/2601Z FM251800 18004KT 4000 FU NSC FM260500 13006KT 6000 NSC
FAISALABAD SE 06KT Haze 28oC
OPGP 31002KT CAVOK 339/19 31%
GARHI DOPATTA NW 02KT Clear 39oC 31%
OPGD 251100Z 23012KT 4000 HZ NSC 38/24 Q1001 RH45%
GAWADAR SW 12KT 4000m Haze 38oC 1001hp 45%
OPGT 251100Z 09002KT 9999 SCT040 35/10 Q1006 RH22% A.V FAIR
GILGIT E 02KT 9999m Partly Cloudy 35oC 1006hp 22%
OPGW 31008KT CAVOK 44/14 18%
GUJRANWALA NW 08KT Clear 44oC 18%
OPUG 00000KT CAVOK 43/20 26%
GUJRAT --- 00KT Clear 43oC 26%
OPHD 00000KT CAVOK 43/24 35%
HAFIZABAD --- 00KT Clear 43oC 35%
OPKD 251100Z 21010KT 6000 NSC 43/23 Q997 RH32%
HYDERABAD A/P SSW 10KT 6000m Clear 43oC 997hp 32%
OPIS 2512/2521 28005G15KT 7000 NSC BECMG 0 NSC
ISLAMABAD A/P 7000m
OPIS 2512/2618 28005G15KT 7000 NSC BECMG 0 NSC
ISLAMABAD A/P
OPIS 31014KT 7000 NSC 39/09 Q1002 TEMPO H 16%
ISLAMABAD A/P NW 14KT Clear 39oC 1002hp 16%
OPHQ 27006KT 8000 NSC 39/09 Q0997 RH 16%
ISLAMABAD CITY W 06KT 8000m Clear 39oC 997hp 16%
OPJG 00000KT CAVOK 43/24 Q0997 39%
JHANG --- 00KT Clear 43oC 997hp 39%
OPJM 31006KT CAVOK 42/14 19%
JHELUM NW 06KT Clear 42oC 19%
OPJBD 00000KT CAVOK 44/27 39%
JOHARABAD --- 00KT Clear 44oC 39%
OPKK 251100Z 13002KT CAVOK 33/10 RH24%
KAKUL SE 02KT Clear 33oC 24%
OPKC 251100Z 23008KT 6000 NSC 37/26 Q0999 RH54%
KARACHI SW 08KT 6000m Clear 37oC 999hp 54%
OPKRL 00000KT 5000 HZ NSC 43/18 23%
KAROR (LAYYAH) --- 00KT 5000m Haze 43oC 23%
OPKS 23002KT 6000 NSC 44/17 22%
KASUR SW 02KT 6000m Clear 44oC 22%
OPKW 00000KT 5000 HZ NSC 43/15 Q0997 20%
KHANEWAL --- 00KT 5000m Haze 43oC 997hp 20%
OPKP 04504KT 3500 DU NSC 46/20 23%
KHANPUR NE 04KT 3500m Dust Haze 46oC 23%
OPKAD 14002KT 8000 NSC 45/22 Q1000 28%
KOT ADDU SE 02KT 8000m Clear 45oC 1000hp 28%
OPKL 23004KT CAVOK 38/16 28%
KOTLI SW 04KT Clear 38oC 28%
OPLA 251100Z 2512/2618 30010KT 5000 HZ NSC TX44/2610Z TN28/2600Z FM251600 32006KT 4000 HZ NSC FM260400 30010KT 5000 HZ NSC TEMPO G30KT
LAHORE A/P WNW 10KT 5000m Haze 28oC
OPLA 31012KT 8000 42/14 Q0999 A2952 TEMPO T 19%
LAHORE A/P NW 12KT 42oC 999hp 19%
OPTMG 1100Z 00000KT CAVOK 36/17 32%
LOWER DIR --- 00KT Clear 36oC 32%
OPMB 27004KT CAVOK 45/14 Q0997 16%
MANDI BAHUDDIN W 04KT Clear 45oC 997hp 16%
OPMA 31014KT CAVOK 42/13 Q1003 18%
MANGLA NW 14KT Clear 42oC 1003hp 18%
OPMJ 251100Z 18002KT 6000 NSC 49/13 Q0996 RH 13% NOSIG
MOHENJO DARO S 02KT 6000m Clear 49oC 996hp 13%
OPMT 18004KT 4000 HZ NSC 44/15 Q0998 NOSIG 19%
Multan Airport S 04KT 4000m Haze 44oC 998hp 19%
OPMT 2512/2618 18010KT 4000 HZ NSC TN30/2601Z TX46/2610Z FM260600 31010KT 5000 HZ FEW100
Multan Airport NW 10KT Partly Cloudy 46oC
OPME 13002KT CAVOK 26/11 RH 40%
MURREE SE 02KT Clear 26oC 40%
OPMF 00000KT 8000 NSC 37/18 33%
MUZAFFARABAD --- 00KT 8000m Clear 37oC 33%
OPNL 31004KT 5000 HZ NSC 41/23 Q0997 35%
NAROWAL NW 04KT 5000m Haze 41oC 997hp 35%
OPNH 251100Z 18004KT 7000 NSC 47/21 Q0997.0 RH24%
NAWABSHAH S 04KT 7000m Clear 47oC 24%
OPNPT 00000KT 8000 NSC 45/18 22%
NOOR PUR THAL --- 00KT 8000m Clear 45oC 22%
OPOK 00000KT 8000 NSC 43/16 Q0999 22%
OKARA --- 00KT 8000m Clear 43oC 999hp 22%
OPPS 05006KT 7000 NSC 39/15 Q1001 NOSIG RH24%
PESHAWAR AP NE 06KT 7000m Clear 39oC 1001hp 24%
OPPS 251100Z 2512/2624 13006KT 6000 FEW100
PESHAWAR AP SE 06KT
OPPS 251100Z 2512/2618 13006KT 6000 FEW100
PESHAWAR AP SE 06KT
OPRK 2512/2612 23010KT 3000 HZ NSC TN31/2601Z TX48/2610Z PROB30 TEMPO EW100
R Y KHAN SW 10KT 3000m Haze 48oC
OPRK 05006KT 3500 HZ NSC 45/19 Q0999 23%
R Y KHAN NE 06KT Haze 45oC 999hp 23%
OPRT 23002KT CAVOK 29/14 Q1017 41%
RAWALAKOT SW 02KT Clear 29oC 1017hp 41%
OPSW 00000KT 4000 HZ NSC 42/16 Q0998 23%
SAHIWAL --- 00KT 4000m Haze 42oC 998hp 23%
OPSS 25/1100Z 27006KT CAVOK 36/14 27%
SAIDU SHARIF W 06KT Clear 36oC 27%
OPSG 27002KT 7000 NSC 45/17 20%
SARGODHA CITY W 02KT 7000m Clear 45oC 20%
OPSKP 27004KT CAVOK 42/14 19%
Sheikhupura W 04KT Clear 42oC 19%
OPST 31010KT 5000 HZ NSC 41/14 Q0999 NOSIG 21%
SIALKOT A/P NW 10KT 5000m Haze 41oC 999hp 21%
OPST 251100Z 2512/2618 31010KT 4000 HZ NSC TX41/2610Z TN26/2600Z TEMPO U NSC
SIALKOT A/P NW 10KT Haze 26oC
OPSKT 00000KT 6000 NSC 41/20 30%
SIALKOT CITY --- 00KT 6000m Clear 41oC 30%
OPSD 251100Z 00000KT 9999 SCT 040 27/03 Q1015 21% A/V O/H P.CLOUDY
SKARDU --- 00KT 9999m Partly Cloudy 27oC 1015hp 21%
OPTS 05002KT 8000 NSC 42/23 34%
T T SINGH NE 02KT 8000m Clear 42oC 34%